Time;durP1;ratioP1;P1;durP2;ratioP2;P2;SDS_P1;SDS_P2;PMS_P1;PMS_P2;Temp;Humidity;BMP_temperature;BMP_pressure;BME280_temperature;BME280_humidity;BME280_pressure;Samples;Min_cycle;Max_cycle;Signal;HPM_P1;HPM_P2
2024/01/07 00:01:57;;;;;;;2.83;1.10;;;;;;;18.42;50.19;95917.13;10388978;28;20030;-29
2024/01/07 00:06:57;;;;;;;2.20;1.30;;;;;;;18.52;49.39;95938.94;10386883;28;20034;-28
2024/01/07 00:11:58;;;;;;;1.00;0.90;;;;;;;18.52;49.47;95952.47;10396645;28;20287;-29
2024/01/07 00:16:58;;;;;;;1.90;1.17;;;;;;;18.52;51.58;95949.09;10393138;28;20288;-29
2024/01/07 00:21:58;;;;;;;1.63;1.00;;;;;;;18.51;50.66;95944.88;10381720;28;20284;-29
2024/01/07 00:26:59;;;;;;;2.30;1.07;;;;;;;18.50;52.24;95945.75;10391203;28;20117;-28
2024/01/07 00:31:59;;;;;;;1.45;0.88;;;;;;;18.50;50.38;95948.28;10392825;28;20486;-29
2024/01/07 00:37:00;;;;;;;3.63;0.93;;;;;;;18.52;51.33;95952.47;10390536;28;20030;-30
2024/01/07 00:42:00;;;;;;;1.20;0.90;;;;;;;18.50;47.73;95963.47;10401789;28;20116;-28
2024/01/07 00:47:01;;;;;;;1.90;0.90;;;;;;;18.51;48.57;95952.47;10394381;28;20051;-29
2024/01/07 00:52:01;;;;;;;1.03;0.80;;;;;;;18.50;47.74;95948.28;10391866;28;20424;-29
2024/01/07 00:57:02;;;;;;;3.13;1.10;;;;;;;18.50;49.41;95943.19;10391924;28;20497;-29
2024/01/07 01:02:03;;;;;;;1.38;0.82;;;;;;;18.50;47.69;95953.34;10399018;28;20388;-29
2024/01/07 01:07:03;;;;;;;1.92;0.63;;;;;;;18.51;48.34;95949.94;10388153;28;20037;-29
2024/01/07 01:12:03;;;;;;;1.27;0.73;;;;;;;18.51;48.31;95958.38;10390463;28;20037;-29
2024/01/07 01:17:04;;;;;;;2.10;0.75;;;;;;;18.51;49.22;95960.09;10391989;28;20390;-28
2024/01/07 01:22:04;;;;;;;1.30;0.70;;;;;;;18.49;48.72;95961.81;10393261;28;20076;-29
2024/01/07 01:27:05;;;;;;;0.67;0.50;;;;;;;18.51;47.21;95960.09;10387382;28;20413;-29
2024/01/07 01:32:06;;;;;;;1.37;0.67;;;;;;;18.52;48.82;95966.81;10392418;28;20115;-29
2024/01/07 01:37:08;;;;;;;1.30;0.65;;;;;;;18.52;47.57;95971.91;10399188;28;20308;-29
2024/01/07 01:42:08;;;;;;;2.35;0.77;;;;;;;18.51;50.44;95971.03;10396866;28;20038;-31
2024/01/07 01:47:10;;;;;;;0.70;0.60;;;;;;;18.50;49.28;95964.31;10384153;28;20445;-29
2024/01/07 01:52:12;;;;;;;2.05;0.75;;;;;;;18.51;49.75;95960.09;10392569;28;20037;-29
2024/01/07 01:57:19;;;;;;;3.40;0.90;;;;;;;18.51;50.37;95970.22;10408849;28;20072;-32
2024/01/07 02:02:19;;;;;;;0.97;0.80;;;;;;;18.49;47.90;95965.16;10392811;28;20048;-29
2024/01/07 02:07:19;;;;;;;2.30;0.52;;;;;;;18.51;47.35;95975.28;10392630;28;20797;-29
2024/01/07 02:12:20;;;;;;;2.55;0.73;;;;;;;18.52;48.24;95979.50;10394598;28;20041;-29
2024/01/07 02:17:20;;;;;;;0.73;0.60;;;;;;;18.52;51.80;95982.03;10392696;28;20041;-29
2024/01/07 02:22:24;;;;;;;1.58;0.52;;;;;;;18.50;48.33;95979.50;10399567;28;20034;-29
2024/01/07 02:27:24;;;;;;;1.00;0.50;;;;;;;18.51;50.81;95977.81;10390422;28;20493;-28
2024/01/07 02:32:24;;;;;;;0.93;0.40;;;;;;;18.51;48.08;95977.81;10384487;28;20128;-30
2024/01/07 02:37:25;;;;;;;1.45;0.70;;;;;;;18.52;48.71;95982.03;10398134;28;20883;-28
2024/01/07 02:42:25;;;;;;;1.38;0.60;;;;;;;18.51;48.58;95980.38;10393744;28;20095;-29
2024/01/07 02:47:26;;;;;;;1.30;0.60;;;;;;;18.52;50.68;95975.28;10387363;28;20022;-31
2024/01/07 02:52:26;;;;;;;0.35;0.35;;;;;;;18.51;49.28;95977.81;10392509;28;20799;-29
2024/01/07 02:57:27;;;;;;;0.80;0.50;;;;;;;18.51;49.78;95965.97;10386595;28;20049;-29
2024/01/07 03:02:27;;;;;;;1.88;0.50;;;;;;;18.51;49.11;95975.28;10383795;28;20072;-30
2024/01/07 03:07:27;;;;;;;2.10;0.80;;;;;;;18.51;50.44;95970.22;10385157;28;20183;-29
2024/01/07 03:12:28;;;;;;;3.70;0.70;;;;;;;18.51;48.01;95975.28;10381731;28;20163;-30
2024/01/07 03:17:28;;;;;;;2.63;0.57;;;;;;;18.51;48.02;95970.22;10384003;28;20037;-29
2024/01/07 03:22:29;;;;;;;1.13;0.70;;;;;;;18.52;49.99;95976.97;10391953;28;20037;-29
2024/01/07 03:27:29;;;;;;;0.68;0.60;;;;;;;18.49;51.37;95979.56;10382301;28;20120;-29
2024/01/07 03:32:29;;;;;;;1.52;0.57;;;;;;;18.50;52.30;95979.50;10387355;28;20108;-29
2024/01/07 03:37:30;;;;;;;2.33;0.57;;;;;;;18.51;49.01;95980.38;10385178;28;20056;-29
2024/01/07 03:42:30;;;;;;;4.13;0.80;;;;;;;18.50;50.28;95988.81;10385933;28;20045;-28
2024/01/07 03:47:31;;;;;;;2.07;0.40;;;;;;;18.44;51.80;95978.75;10388595;28;20107;-29
2024/01/07 03:52:33;;;;;;;1.48;0.50;;;;;;;18.50;50.90;95983.75;10386781;28;20052;-29
2024/01/07 03:57:33;;;;;;;3.28;0.65;;;;;;;18.38;52.04;95973.75;10389827;28;20126;-29
2024/01/07 04:02:33;;;;;;;1.23;0.73;;;;;;;18.50;49.26;95993.91;10382178;28;20509;-30
2024/01/07 04:07:34;;;;;;;2.57;0.57;;;;;;;18.52;49.65;95989.63;10386260;28;20029;-29
2024/01/07 04:12:34;;;;;;;0.90;0.47;;;;;;;18.52;48.42;95989.63;10393520;28;20798;-29
2024/01/07 04:17:34;;;;;;;2.23;0.57;;;;;;;18.51;49.41;95990.50;10396944;28;20072;-29
2024/01/07 04:22:35;;;;;;;3.37;0.70;;;;;;;18.51;49.06;96003.19;10393159;28;20325;-30
2024/01/07 04:27:35;;;;;;;0.77;0.50;;;;;;;18.50;48.64;95998.97;10391949;28;20060;-29
2024/01/07 04:32:35;;;;;;;2.37;0.60;;;;;;;18.50;47.97;95994.72;10409225;28;20505;-29
2024/01/07 04:37:37;;;;;;;1.13;0.40;;;;;;;18.52;49.19;96002.31;10395637;28;20038;-28
2024/01/07 04:42:37;;;;;;;2.72;1.13;;;;;;;18.52;49.16;96002.31;10392518;28;20046;-31
2024/01/07 04:47:38;;;;;;;0.30;0.30;;;;;;;18.51;47.58;96005.72;10392389;28;20052;-29
2024/01/07 04:52:38;;;;;;;0.87;0.40;;;;;;;18.51;48.10;96006.53;10399186;28;20037;-30
2024/01/07 04:57:38;;;;;;;2.10;0.67;;;;;;;18.51;51.36;96006.53;10398498;28;20042;-29
2024/01/07 05:02:38;;;;;;;1.40;0.67;;;;;;;18.49;53.10;96015.03;10394711;28;20112;-29
2024/01/07 05:07:39;;;;;;;2.83;0.50;;;;;;;18.50;52.40;96015.00;10397284;28;20052;-29
2024/01/07 05:12:39;;;;;;;0.57;0.30;;;;;;;18.50;48.91;96011.63;10393460;28;20783;-29
2024/01/07 05:17:40;;;;;;;1.07;0.80;;;;;;;18.48;50.50;96016.72;10396280;28;20103;-29
2024/01/07 05:22:40;;;;;;;2.30;0.50;;;;;;;18.52;48.80;96015.00;10398588;28;20503;-29
2024/01/07 05:27:40;;;;;;;0.73;0.57;;;;;;;18.52;50.24;96025.13;10396016;28;20120;-29
2024/01/07 05:32:41;;;;;;;1.00;0.80;;;;;;;18.52;47.77;96027.66;10391347;28;20160;-29
2024/01/07 05:37:41;;;;;;;1.50;0.60;;;;;;;18.52;47.01;96032.72;10394966;28;20396;-29
2024/01/07 05:42:41;;;;;;;3.87;0.50;;;;;;;18.38;47.04;96019.34;10393013;28;20052;-29
2024/01/07 05:47:42;;;;;;;2.57;0.80;;;;;;;18.47;47.20;96027.72;10394539;28;20438;-29
2024/01/07 05:52:42;;;;;;;2.00;0.70;;;;;;;18.50;46.45;96042.88;10395870;28;20475;-29
2024/01/07 05:57:43;;;;;;;1.38;0.65;;;;;;;18.51;47.43;96046.25;10393382;28;20520;-29
2024/01/07 06:02:43;;;;;;;1.02;0.63;;;;;;;18.52;46.16;96047.94;10393945;28;20040;-29
2024/01/07 06:07:44;;;;;;;1.10;0.60;;;;;;;18.52;46.07;96047.94;10392666;28;20083;-29
2024/01/07 06:12:44;;;;;;;0.70;0.53;;;;;;;18.51;47.02;96056.41;10391780;28;20121;-29
2024/01/07 06:17:46;;;;;;;0.60;0.60;;;;;;;18.53;48.58;96064.81;10391434;28;20038;-30
2024/01/07 06:22:46;;;;;;;0.85;0.57;;;;;;;18.50;49.10;96058.09;10392936;28;20408;-28
2024/01/07 06:27:47;;;;;;;2.95;0.85;;;;;;;18.54;50.29;96071.56;10392023;28;20034;-30
2024/01/07 06:32:48;;;;;;;1.03;0.50;;;;;;;18.52;50.16;96069.06;10391076;28;20555;-29
2024/01/07 06:37:49;;;;;;;1.80;0.82;;;;;;;18.53;51.28;96069.91;10392706;28;20475;-29
2024/01/07 06:42:49;;;;;;;5.18;0.65;;;;;;;18.52;50.73;96073.28;10392918;28;20036;-29
2024/01/07 06:47:49;;;;;;;1.38;0.73;;;;;;;18.53;51.38;96082.56;10396150;28;20029;-28
2024/01/07 06:52:50;;;;;;;1.10;0.50;;;;;;;18.53;50.55;96075.81;10399108;28;20574;-28
2024/01/07 06:57:50;;;;;;;0.50;0.47;;;;;;;18.53;50.84;96080.88;10398052;28;20292;-28
2024/01/07 07:02:50;;;;;;;0.90;0.60;;;;;;;18.54;49.53;96081.72;10391354;28;20042;-31
2024/01/07 07:07:51;;;;;;;1.30;0.73;;;;;;;18.51;50.30;96087.66;10399804;28;20370;-29
2024/01/07 07:12:51;;;;;;;1.33;0.47;;;;;;;18.56;51.01;96097.72;10390780;28;20036;-29
2024/01/07 07:17:52;;;;;;;0.88;0.75;;;;;;;18.57;49.04;96096.91;10400143;28;20029;-29
2024/01/07 07:22:54;;;;;;;1.10;1.00;;;;;;;18.57;49.09;96097.72;10393756;28;20060;-29
2024/01/07 07:27:56;;;;;;;1.42;0.80;;;;;;;18.54;47.76;96096.91;10395737;28;20705;-29
2024/01/07 07:32:58;;;;;;;1.77;0.95;;;;;;;18.61;49.60;96118.81;10396437;28;20034;-29
2024/01/07 07:37:59;;;;;;;2.35;1.10;;;;;;;18.63;49.28;96117.09;10393561;28;20022;-29
2024/01/07 07:42:59;;;;;;;1.30;1.00;;;;;;;18.56;52.31;96126.47;10395103;28;20031;-29
2024/01/07 07:47:59;;;;;;;3.67;1.20;;;;;;;18.41;51.45;96125.78;10395251;28;20108;-29
2024/01/07 07:53:00;;;;;;;4.77;1.07;;;;;;;18.36;52.26;96142.72;10398824;28;20044;-29
2024/01/07 07:58:00;;;;;;;1.57;1.00;;;;;;;18.48;51.28;96132.47;10398478;28;20087;-29
2024/01/07 08:03:01;;;;;;;1.58;1.10;;;;;;;18.54;51.40;96145.94;10394491;28;20045;-29
2024/01/07 08:08:01;;;;;;;1.17;0.93;;;;;;;18.55;51.38;96140.00;10396698;28;20113;-29
2024/01/07 08:13:02;;;;;;;1.73;1.10;;;;;;;18.54;51.39;96133.25;10392160;28;20029;-29
2024/01/07 08:18:03;;;;;;;2.53;0.95;;;;;;;18.57;51.42;96152.69;10391664;28;20053;-29
2024/01/07 08:23:04;;;;;;;1.35;0.75;;;;;;;18.56;51.05;96150.97;10394498;28;20111;-29
2024/01/07 08:28:05;;;;;;;1.50;1.00;;;;;;;18.57;51.23;96157.75;10391198;28;20053;-29
2024/01/07 08:33:05;;;;;;;1.05;0.80;;;;;;;18.55;51.41;96157.75;10395155;28;20557;-29
2024/01/07 08:38:06;;;;;;;2.03;1.13;;;;;;;18.56;51.31;96161.09;10385061;28;20037;-29
2024/01/07 08:43:06;;;;;;;2.53;1.00;;;;;;;18.54;51.59;96161.16;10391973;28;20038;-29
2024/01/07 08:48:07;;;;;;;0.80;0.77;;;;;;;18.53;51.88;96161.16;10392832;28;20025;-29
2024/01/07 08:53:07;;;;;;;1.58;0.85;;;;;;;18.38;52.34;96162.13;10397518;28;20087;-29
2024/01/07 08:58:07;;;;;;;4.80;1.37;;;;;;;18.32;52.63;96167.25;10404310;28;20029;-28
2024/01/07 09:03:08;;;;;;;2.00;0.93;;;;;;;18.26;52.84;96179.91;10398727;28;20044;-29
2024/01/07 09:08:11;;;;;;;1.65;0.95;;;;;;;18.28;52.74;96179.91;10399358;28;20026;-29
2024/01/07 09:13:11;;;;;;;1.08;0.65;;;;;;;18.26;52.63;96186.69;10401077;28;20116;-29
2024/01/07 09:18:12;;;;;;;2.47;0.75;;;;;;;18.24;53.01;96190.94;10398523;28;20440;-29
2024/01/07 09:23:12;;;;;;;0.88;0.85;;;;;;;18.19;53.33;96198.56;10400682;28;20045;-29
2024/01/07 09:28:12;;;;;;;2.17;0.90;;;;;;;18.19;53.18;96202.78;10397836;28;20452;-29
2024/01/07 09:33:15;;;;;;;1.80;0.50;;;;;;;18.12;53.39;96193.53;10400754;28;20417;-29
2024/01/07 09:38:15;;;;;;;1.02;0.82;;;;;;;18.16;53.39;96216.31;10398173;28;20686;-29
2024/01/07 09:43:16;;;;;;;1.33;0.88;;;;;;;18.15;53.38;96214.63;10394497;28;20135;-29
2024/01/07 09:48:16;;;;;;;4.53;0.80;;;;;;;18.23;52.51;96210.34;10400010;28;20417;-29
2024/01/07 09:53:20;;;;;;;4.77;1.23;;;;;;;18.37;51.50;96210.28;10401296;28;20039;-29
2024/01/07 09:58:21;;;;;;;1.10;0.65;;;;;;;18.27;53.04;96216.25;10401676;28;20319;-29
2024/01/07 10:03:21;;;;;;;1.73;0.80;;;;;;;18.29;52.88;96220.50;10399814;28;20125;-29
2024/01/07 10:08:21;;;;;;;0.93;0.77;;;;;;;18.31;52.30;96210.31;10398705;28;20038;-29
2024/01/07 10:13:22;;;;;;;2.13;0.97;;;;;;;18.29;53.03;96207.81;10395305;28;20297;-29
2024/01/07 10:18:22;;;;;;;9.83;2.10;;;;;;;18.32;53.45;96212.84;10397790;28;20798;-29
2024/01/07 10:23:23;;;;;;;11.48;2.25;;;;;;;18.34;53.04;96210.31;10399272;28;20291;-29
2024/01/07 10:28:23;;;;;;;5.63;1.50;;;;;;;18.31;53.21;96216.25;10393530;28;20497;-29
2024/01/07 10:33:24;;;;;;;10.40;1.90;;;;;;;18.30;54.07;96209.50;10398177;28;20059;-29
2024/01/07 10:38:24;;;;;;;6.18;1.98;;;;;;;18.24;53.98;96211.22;10390374;28;20296;-29
2024/01/07 10:43:28;;;;;;;10.33;1.57;;;;;;;18.27;53.82;96221.31;10402514;28;20029;-29
2024/01/07 10:48:33;;;;;;;6.82;1.55;;;;;;;18.29;54.41;96212.00;10388657;28;20080;-30
2024/01/07 10:53:38;;;;;;;8.95;2.55;;;;;;;18.32;54.57;96209.50;10393964;28;20042;-29
2024/01/07 10:58:39;;;;;;;8.13;1.92;;;;;;;18.28;55.13;96211.19;10392332;28;20126;-29
2024/01/07 11:03:49;;;;;;;6.88;1.63;;;;;;;18.31;54.44;96201.03;10387907;28;20567;-29
2024/01/07 11:09:03;;;;;;;6.97;1.45;;;;;;;18.36;54.00;96203.53;10387000;28;20108;-29
2024/01/07 11:14:03;;;;;;;5.95;1.83;;;;;;;18.35;54.31;96196.78;10394061;28;20049;-29
2024/01/07 11:19:04;;;;;;;4.13;1.40;;;;;;;18.36;53.62;96196.78;10393386;28;20041;-28
2024/01/07 11:24:05;;;;;;;5.15;1.92;;;;;;;18.36;52.81;96193.41;10385378;28;20040;-29
2024/01/07 11:29:08;;;;;;;2.30;1.15;;;;;;;18.34;54.58;96190.03;10396773;28;20041;-29
2024/01/07 11:34:09;;;;;;;7.05;1.80;;;;;;;18.35;53.78;96196.78;10395557;28;20493;-29
2024/01/07 11:39:10;;;;;;;3.47;1.30;;;;;;;18.34;54.53;96195.13;10395215;28;20104;-30
2024/01/07 11:44:13;;;;;;;3.65;1.67;;;;;;;18.31;55.25;96190.06;10390044;28;20292;-28
2024/01/07 11:49:15;;;;;;;3.47;1.80;;;;;;;18.32;55.24;96184.16;10391858;28;20485;-29
2024/01/07 11:54:15;;;;;;;7.75;1.98;;;;;;;18.30;55.04;96194.28;10397372;28;20034;-29
2024/01/07 11:59:16;;;;;;;4.78;1.63;;;;;;;18.31;55.10;96190.06;10397316;28;20037;-29
2024/01/07 12:04:16;;;;;;;4.35;1.85;;;;;;;18.24;55.79;96188.41;10390460;28;20033;-30
2024/01/07 12:09:17;;;;;;;6.78;2.20;;;;;;;18.25;55.79;96195.16;10394491;28;20030;-29
2024/01/07 12:14:19;;;;;;;4.13;1.80;;;;;;;18.27;55.73;96189.22;10390355;28;20108;-30
2024/01/07 12:19:21;;;;;;;2.28;1.60;;;;;;;18.26;55.06;96191.75;10394660;28;20034;-28
2024/01/07 12:24:24;;;;;;;5.97;1.80;;;;;;;18.31;55.21;96201.03;10391180;28;20228;-29
2024/01/07 12:29:25;;;;;;;3.20;1.63;;;;;;;18.36;54.70;96198.47;10386722;28;20049;-29
2024/01/07 12:34:26;;;;;;;3.15;1.60;;;;;;;18.40;54.56;96200.16;10397981;28;20095;-30
2024/01/07 12:39:26;;;;;;;2.83;1.47;;;;;;;18.44;54.87;96194.19;10399996;28;20030;-30
2024/01/07 12:44:28;;;;;;;2.03;1.03;;;;;;;18.54;55.09;96200.84;10408037;28;20022;-30
2024/01/07 12:49:29;;;;;;;3.08;1.27;;;;;;;18.64;54.69;96199.91;10390894;28;20125;-30
2024/01/07 12:54:29;;;;;;;4.43;1.38;;;;;;;18.76;54.75;96194.75;10396481;28;20120;-29
2024/01/07 12:59:30;;;;;;;2.03;1.23;;;;;;;18.87;54.28;96203.94;10395547;28;20037;-30
2024/01/07 13:04:30;;;;;;;4.50;1.37;;;;;;;18.94;54.29;96200.50;10404474;28;20547;-29
2024/01/07 13:09:30;;;;;;;3.33;1.67;;;;;;;18.95;54.49;96211.47;10406548;28;20249;-29
2024/01/07 13:14:31;;;;;;;3.97;1.20;;;;;;;19.02;54.57;96208.00;10382592;28;20413;-29
2024/01/07 13:19:31;;;;;;;5.87;1.50;;;;;;;19.03;55.04;96209.69;10398471;28;20029;-29
2024/01/07 13:24:31;;;;;;;2.60;1.23;;;;;;;19.03;55.20;96212.22;10408748;28;20436;-29
2024/01/07 13:29:32;;;;;;;1.93;1.27;;;;;;;19.14;54.19;96212.94;10401757;28;20521;-29
2024/01/07 13:34:32;;;;;;;3.13;1.10;;;;;;;19.04;53.59;96226.59;10400844;28;20048;-30
2024/01/07 13:39:33;;;;;;;2.67;1.42;;;;;;;19.00;53.91;96224.94;10409356;28;20477;-30
2024/01/07 13:44:34;;;;;;;3.47;0.80;;;;;;;19.07;52.06;96216.41;10405444;28;20566;-30
2024/01/07 13:49:34;;;;;;;3.38;1.05;;;;;;;18.87;50.82;96213.22;10400176;28;20288;-30
2024/01/07 13:54:35;;;;;;;3.67;1.23;;;;;;;18.87;50.52;96228.44;10408121;28;20045;-30
2024/01/07 13:59:35;;;;;;;2.88;1.83;;;;;;;18.81;51.96;96223.41;10408019;28;20048;-29
2024/01/07 14:04:36;;;;;;;2.67;1.23;;;;;;;18.84;52.14;96229.31;10408335;28;20099;-29
2024/01/07 14:09:36;;;;;;;3.07;1.33;;;;;;;18.82;53.31;96236.09;10408003;28;20513;-30
2024/01/07 14:14:36;;;;;;;3.37;1.40;;;;;;;18.90;53.15;96241.09;10407337;28;20292;-29
2024/01/07 14:19:37;;;;;;;3.90;1.23;;;;;;;18.87;53.18;96243.66;10404511;28;20036;-30
2024/01/07 14:24:37;;;;;;;3.45;1.45;;;;;;;18.86;53.28;96242.84;10407642;28;20798;-29
2024/01/07 14:29:38;;;;;;;4.87;1.20;;;;;;;18.86;53.32;96255.53;10405790;28;20037;-29
2024/01/07 14:34:41;;;;;;;2.40;1.30;;;;;;;18.83;53.99;96262.31;10406801;28;20037;-28
2024/01/07 14:39:41;;;;;;;3.22;1.63;;;;;;;18.82;53.46;96266.53;10406385;28;20025;-30
2024/01/07 14:44:42;;;;;;;3.30;1.20;;;;;;;18.82;53.34;96270.78;10402915;28;20037;-29
2024/01/07 14:49:42;;;;;;;1.73;1.00;;;;;;;18.79;53.11;96265.72;10398545;28;20284;-31
2024/01/07 14:54:43;;;;;;;3.75;1.30;;;;;;;18.77;53.36;96277.56;10405824;28;20447;-29
2024/01/07 14:59:43;;;;;;;3.53;1.25;;;;;;;18.74;53.52;96286.03;10405383;28;20048;-29
2024/01/07 15:04:44;;;;;;;4.80;1.30;;;;;;;18.70;53.78;96288.63;10405570;28;20033;-30
2024/01/07 15:09:44;;;;;;;2.40;1.00;;;;;;;18.71;54.21;96300.44;10405935;28;20043;-30
2024/01/07 15:14:45;;;;;;;1.83;1.10;;;;;;;18.70;52.59;96303.81;10405121;28;20034;-29
2024/01/07 15:19:45;;;;;;;1.63;0.80;;;;;;;18.68;51.80;96315.69;10405750;28;20037;-30
2024/01/07 15:24:46;;;;;;;2.78;1.23;;;;;;;18.69;51.60;96318.22;10397927;28;20470;-29
2024/01/07 15:29:46;;;;;;;2.57;1.10;;;;;;;18.68;51.32;96318.22;10402657;28;20041;-31
2024/01/07 15:34:47;;;;;;;2.70;1.27;;;;;;;18.68;51.85;96325.81;10405523;28;20025;-30
2024/01/07 15:39:51;;;;;;;2.70;1.65;;;;;;;18.65;52.37;96333.44;10402499;28;20041;-30
2024/01/07 15:44:52;;;;;;;4.47;1.02;;;;;;;18.64;51.62;96341.91;10401144;28;20029;-30
2024/01/07 15:49:52;;;;;;;5.00;1.60;;;;;;;18.53;53.38;96343.66;10397732;28;20045;-30
2024/01/07 15:54:53;;;;;;;1.80;1.23;;;;;;;18.55;53.52;96344.50;10399730;28;20416;-30
2024/01/07 15:59:53;;;;;;;3.73;2.70;;;;;;;18.57;52.75;96350.41;10395633;28;20287;-31
2024/01/07 16:04:54;;;;;;;2.22;1.58;;;;;;;18.51;54.24;96358.88;10404669;28;20057;-29
2024/01/07 16:09:54;;;;;;;2.87;1.40;;;;;;;18.50;53.89;96364.81;10408738;28;20045;-29
2024/01/07 16:14:54;;;;;;;1.53;1.10;;;;;;;18.48;52.55;96366.50;10393554;28;20048;-29
2024/01/07 16:19:55;;;;;;;5.13;1.87;;;;;;;18.49;52.25;96372.44;10395695;28;20037;-29
2024/01/07 16:24:55;;;;;;;2.63;1.73;;;;;;;18.47;48.96;96381.72;10408914;28;20022;-29
2024/01/07 16:29:56;;;;;;;4.40;2.92;;;;;;;18.47;47.94;96381.72;10399727;28;20973;-30
2024/01/07 16:34:56;;;;;;;2.20;1.90;;;;;;;18.41;48.03;96389.38;10406854;28;20401;-29
2024/01/07 16:39:57;;;;;;;2.92;2.10;;;;;;;18.40;47.41;96390.22;10406894;28;20041;-29
2024/01/07 16:44:58;;;;;;;2.10;1.88;;;;;;;18.40;48.07;96392.75;10407579;28;20146;-29
2024/01/07 16:49:58;;;;;;;3.63;2.33;;;;;;;18.40;49.43;96391.06;10406467;28;20044;-30
2024/01/07 16:54:58;;;;;;;3.20;2.00;;;;;;;18.41;48.80;96400.34;10406673;28;20037;-29
2024/01/07 16:59:59;;;;;;;3.87;2.73;;;;;;;18.40;48.15;96406.25;10406143;28;20038;-30
2024/01/07 17:05:01;;;;;;;3.13;1.50;;;;;;;18.41;51.34;96410.47;10405451;28;20036;-30
2024/01/07 17:10:01;;;;;;;2.30;1.80;;;;;;;18.43;49.75;96420.63;10407425;28;20021;-31
2024/01/07 17:15:03;;;;;;;2.87;1.80;;;;;;;18.48;50.28;96421.41;10406268;28;20045;-29
2024/01/07 17:20:04;;;;;;;4.20;1.90;;;;;;;18.50;50.06;96429.88;10405247;28;20303;-29
2024/01/07 17:25:08;;;;;;;2.95;1.70;;;;;;;18.39;50.65;96416.41;10403189;28;20504;-30
2024/01/07 17:30:09;;;;;;;2.40;1.50;;;;;;;18.53;50.66;96434.94;10396665;28;20477;-30
2024/01/07 17:35:09;;;;;;;2.85;1.73;;;;;;;18.52;50.69;96443.38;10395510;28;20029;-29
2024/01/07 17:40:10;;;;;;;2.45;1.77;;;;;;;18.52;51.79;96444.25;10405665;28;20037;-30
2024/01/07 17:45:11;;;;;;;1.98;1.25;;;;;;;18.45;51.54;96456.94;10407947;28;20511;-30
2024/01/07 17:50:14;;;;;;;4.82;1.85;;;;;;;18.48;52.70;96461.97;10407755;28;20049;-29
2024/01/07 17:55:16;;;;;;;1.95;1.70;;;;;;;18.36;54.07;96456.97;10405790;28;20477;-31
2024/01/07 18:00:16;;;;;;;1.70;1.55;;;;;;;18.39;52.68;96462.03;10383801;28;20036;-29
2024/01/07 18:05:17;;;;;;;4.32;1.40;;;;;;;18.37;53.52;96469.66;10400580;28;20727;-31
2024/01/07 18:10:17;;;;;;;2.03;1.80;;;;;;;18.39;51.90;96477.22;10398567;28;20036;-29
2024/01/07 18:15:18;;;;;;;4.97;1.60;;;;;;;18.31;54.27;96481.47;10402589;28;20094;-30
2024/01/07 18:20:19;;;;;;;2.37;1.80;;;;;;;18.30;53.93;96487.41;10390291;28;20045;-29
2024/01/07 18:25:20;;;;;;;3.90;2.20;;;;;;;18.30;53.86;96492.47;10400675;28;20083;-29
2024/01/07 18:30:20;;;;;;;2.00;1.80;;;;;;;18.29;53.51;96490.75;10405050;28;20034;-30
2024/01/07 18:35:20;;;;;;;2.43;1.70;;;;;;;18.28;53.34;96501.75;10396785;28;20045;-30
2024/01/07 18:40:21;;;;;;;3.97;1.70;;;;;;;18.27;53.22;96497.53;10396281;28;20511;-29
2024/01/07 18:45:23;;;;;;;5.03;1.93;;;;;;;18.24;53.37;96497.53;10401626;28;20070;-29
2024/01/07 18:50:23;;;;;;;3.53;1.38;;;;;;;18.22;53.51;96499.22;10398631;28;20068;-30
2024/01/07 18:55:26;;;;;;;3.83;1.80;;;;;;;18.27;53.09;96507.66;10411437;28;20136;-29
2024/01/07 19:00:27;;;;;;;3.88;1.52;;;;;;;18.31;52.65;96514.41;10387422;28;20033;-29
2024/01/07 19:05:27;;;;;;;4.43;1.73;;;;;;;18.34;52.81;96524.56;10390692;28;20034;-29
2024/01/07 19:10:28;;;;;;;2.70;1.67;;;;;;;18.35;53.05;96522.00;10391014;28;20041;-29
2024/01/07 19:15:29;;;;;;;1.50;1.40;;;;;;;18.33;52.77;96530.50;10389468;28;20029;-29
2024/01/07 19:20:32;;;;;;;5.70;1.77;;;;;;;18.32;52.47;96531.34;10396896;28;20026;-30
2024/01/07 19:25:35;;;;;;;2.53;1.52;;;;;;;18.37;51.69;96534.69;10393933;28;20041;-30
2024/01/07 19:30:36;;;;;;;3.65;2.00;;;;;;;18.36;51.67;96540.59;10393472;28;20025;-30
2024/01/07 19:35:37;;;;;;;3.67;1.67;;;;;;;18.34;52.49;96544.84;10395693;28;20041;-30
2024/01/07 19:40:38;;;;;;;4.83;1.50;;;;;;;18.32;52.45;96549.09;10385343;28;20444;-30
2024/01/07 19:45:41;;;;;;;2.58;1.60;;;;;;;18.31;52.67;96549.91;10385438;28;20034;-29
2024/01/07 19:50:46;;;;;;;2.10;1.65;;;;;;;18.27;52.70;96553.28;10387419;28;20390;-29
2024/01/07 19:55:51;;;;;;;2.63;2.03;;;;;;;18.31;52.41;96557.50;10393858;28;20037;-30
2024/01/07 20:00:51;;;;;;;2.30;1.77;;;;;;;18.27;52.10;96563.41;10395071;28;20041;-29
2024/01/07 20:05:52;;;;;;;3.27;2.47;;;;;;;18.30;52.34;96558.34;10389504;28;20703;-30
2024/01/07 20:10:56;;;;;;;2.60;1.77;;;;;;;18.28;52.07;96560.03;10374050;28;20061;-29
2024/01/07 20:15:56;;;;;;;3.40;2.30;;;;;;;18.28;51.86;96570.16;10379123;28;20493;-30
2024/01/07 20:20:56;;;;;;;2.93;1.77;;;;;;;18.27;52.16;96563.41;10382770;28;20033;-30
2024/01/07 20:25:57;;;;;;;2.10;1.67;;;;;;;18.30;51.67;96573.56;10375741;28;20038;-29
2024/01/07 20:30:57;;;;;;;4.07;2.17;;;;;;;18.27;52.09;96568.47;10393268;28;20295;-29
2024/01/07 20:35:59;;;;;;;4.50;1.83;;;;;;;18.25;51.88;96577.78;10396688;28;20033;-29
2024/01/07 20:40:59;;;;;;;5.00;2.30;;;;;;;18.23;52.00;96576.91;10376376;28;20041;-30
2024/01/07 20:46:00;;;;;;;4.27;2.00;;;;;;;18.20;51.96;96582.00;10392726;28;20037;-29
2024/01/07 20:51:00;;;;;;;3.27;2.27;;;;;;;18.25;51.62;96592.97;10387507;28;20080;-30
2024/01/07 20:56:01;;;;;;;4.30;2.23;;;;;;;18.23;51.92;96600.56;10390297;28;20034;-29
2024/01/07 21:01:02;;;;;;;3.03;2.13;;;;;;;18.24;51.67;96598.91;10404005;28;20162;-29
2024/01/07 21:06:02;;;;;;;2.85;2.22;;;;;;;18.25;51.57;96600.59;10407153;28;20037;-29
2024/01/07 21:11:04;;;;;;;3.43;2.40;;;;;;;18.24;51.30;96598.91;10403756;28;20037;-29
2024/01/07 21:16:05;;;;;;;2.85;2.10;;;;;;;18.22;51.82;96603.09;10406758;28;20303;-29
2024/01/07 21:21:05;;;;;;;3.13;2.33;;;;;;;18.23;51.45;96604.78;10394041;28;20049;-31
2024/01/07 21:26:06;;;;;;;3.43;2.43;;;;;;;18.22;51.96;96600.56;10395658;28;20034;-29
2024/01/07 21:31:08;;;;;;;3.97;3.22;;;;;;;18.20;52.81;96608.19;10410100;28;20284;-30
2024/01/07 21:36:10;;;;;;;5.13;3.35;;;;;;;18.21;53.20;96603.94;10403525;28;20036;-29
2024/01/07 21:41:11;;;;;;;7.40;3.20;;;;;;;18.20;53.65;96612.41;10401208;28;20080;-30
2024/01/07 21:46:14;;;;;;;5.65;3.83;;;;;;;18.17;53.77;96613.25;10407789;28;20037;-30
2024/01/07 21:51:14;;;;;;;6.70;3.40;;;;;;;18.19;52.10;96615.78;10404548;28;20780;-29
2024/01/07 21:56:15;;;;;;;6.03;3.00;;;;;;;18.14;53.95;96623.38;10391322;28;20071;-29
2024/01/07 22:01:15;;;;;;;6.07;3.73;;;;;;;18.06;53.47;96619.16;10396512;28;20045;-29
2024/01/07 22:06:15;;;;;;;5.23;3.07;;;;;;;18.10;53.89;96626.78;10391662;28;20047;-29
2024/01/07 22:11:17;;;;;;;5.47;3.37;;;;;;;18.09;53.50;96624.25;10400748;28;20033;-30
2024/01/07 22:16:18;;;;;;;5.63;3.30;;;;;;;18.08;53.20;96627.63;10401556;28;20029;-29
2024/01/07 22:21:19;;;;;;;5.45;2.78;;;;;;;18.07;53.46;96636.06;10404393;28;20046;-30
2024/01/07 22:26:20;;;;;;;4.05;2.90;;;;;;;18.06;53.25;96635.22;10406742;28;20029;-29
2024/01/07 22:31:20;;;;;;;5.90;2.78;;;;;;;17.92;53.28;96615.78;10406153;28;20045;-29
2024/01/07 22:36:21;;;;;;;4.93;2.77;;;;;;;18.05;53.44;96635.19;10406896;28;20623;-29
2024/01/07 22:41:21;;;;;;;3.97;2.27;;;;;;;18.03;53.14;96634.34;10399396;28;20280;-29
2024/01/07 22:46:22;;;;;;;4.30;2.77;;;;;;;18.04;52.99;96641.13;10395512;28;20044;-30
2024/01/07 22:51:22;;;;;;;3.40;2.40;;;;;;;18.02;53.15;96638.59;10401355;28;20029;-30
2024/01/07 22:56:22;;;;;;;4.30;2.83;;;;;;;18.04;52.87;96643.66;10400270;28;20040;-30
2024/01/07 23:01:27;;;;;;;3.40;2.30;;;;;;;18.02;52.77;96647.88;10405884;28;20072;-29
2024/01/07 23:06:28;;;;;;;5.80;2.67;;;;;;;18.01;52.80;96651.25;10399421;28;20491;-29
2024/01/07 23:11:28;;;;;;;3.37;2.40;;;;;;;17.99;52.83;96653.78;10402402;28;20041;-30
2024/01/07 23:16:29;;;;;;;8.07;2.10;;;;;;;17.99;52.41;96653.78;10401331;28;20030;-29